Terminal Aerodrome Forecast
Issued by NWS

Home | Current Version | Previous Version | Text Only | Print | Product List | Glossary On
Versions: 1 2 3 4 5 6 7 8 9 10 11 12 13 14 15 16 17 18 19 20 21 22 23 24 25 26 27 28 29 30
000
FTUS43 KLSX 282300
TAFUIN
TAF
KUIN 282322Z 2900/2924 18012KT P6SM BKN150 WS018/22045KT
     FM290700 25014KT P6SM BKN100
     FM291000 29022G30KT P6SM OVC015
     FM291800 32020G28KT P6SM BKN020
     FM292100 32018G25KT P6SM SCT030=

USA.gov is the U.S. government's official web portal to all federal, state and local government web resources and services.